Time,TemperatureF,DewpointF,PressureIn,WindDirection,WindDirectionDegrees,WindSpeedMPH,WindSpeedGustMPH,Humidity,HourlyPrecipIn,Conditions,Clouds,dailyrainin,SoftwareType,DateUTC
2013-02-01 09:03:00,27.2,10.1,29.68,WSW,258,5.0,7.0,48,0.00,,,0.00,Wunderground v.1.15,2013-02-01 14:03:00,
2013-02-01 09:06:00,27.5,9.9,29.68,WSW,251,6.0,15.0,47,0.00,,,0.00,Wunderground v.1.15,2013-02-01 14:06:00,
2013-02-01 09:10:00,27.6,10.0,29.68,WSW,238,6.0,15.0,47,0.00,,,0.00,Wunderground v.1.15,2013-02-01 14:10:00,
2013-02-01 09:15:00,27.6,10.0,29.68,WSW,246,5.0,15.0,47,0.00,,,0.00,Wunderground v.1.15,2013-02-01 14:15:00,
2013-02-01 09:20:00,27.8,10.6,29.68,West,259,4.0,15.0,48,0.00,,,0.00,Wunderground v.1.15,2013-02-01 14:20:00,
2013-02-01 09:26:00,28.1,10.4,29.68,SW,220,3.0,15.0,47,0.00,,,0.00,Wunderground v.1.15,2013-02-01 14:26:00,
2013-02-01 09:31:00,28.1,10.4,29.69,SSW,213,4.0,15.0,47,0.00,,,0.00,Wunderground v.1.15,2013-02-01 14:31:00,
2013-02-01 09:36:00,27.7,10.1,29.69,WSW,257,5.0,15.0,47,0.00,,,0.00,Wunderground v.1.15,2013-02-01 14:36:00,
2013-02-01 09:41:00,27.2,10.1,29.69,NW,308,5.0,15.0,48,0.00,,,0.00,Wunderground v.1.15,2013-02-01 14:41:00,
2013-02-01 09:46:00,26.7,9.6,29.70,NW,315,5.0,15.0,48,0.00,,,0.00,Wunderground v.1.15,2013-02-01 14:46:00,
2013-02-01 09:52:00,26.5,10.3,29.70,WSW,242,4.0,15.0,50,0.00,,,0.00,Wunderground v.1.15,2013-02-01 14:52:00,
2013-02-01 09:57:00,26.6,10.4,29.71,WNW,283,3.0,15.0,50,0.00,,,0.00,Wunderground v.1.15,2013-02-01 14:57:00,
2013-02-01 10:02:00,26.4,9.8,29.71,West,265,5.0,15.0,49,0.00,,,0.00,Wunderground v.1.15,2013-02-01 15:02:00,
2013-02-01 10:08:00,26.3,10.2,29.71,SW,227,6.0,15.0,50,0.00,,,0.00,Wunderground v.1.15,2013-02-01 15:08:00,
2013-02-01 10:13:00,26.8,10.6,29.72,WSW,255,5.0,15.0,50,0.00,,,0.00,Wunderground v.1.15,2013-02-01 15:13:00,
2013-02-01 10:18:00,27.5,10.8,29.72,SSW,205,5.0,15.0,49,0.00,,,0.00,Wunderground v.1.15,2013-02-01 15:18:00,
2013-02-01 10:24:00,27.6,10.0,29.72,WSW,240,5.0,15.0,47,0.00,,,0.00,Wunderground v.1.15,2013-02-01 15:24:00,
2013-02-01 10:29:00,27.8,10.2,29.73,WSW,237,6.0,15.0,47,0.00,,,0.00,Wunderground v.1.15,2013-02-01 15:29:00,
2013-02-01 10:34:00,28.6,10.9,29.73,NW,311,6.0,15.0,47,0.00,,,0.00,Wunderground v.1.15,2013-02-01 15:34:00,
2013-02-01 10:40:00,28.7,9.0,29.74,WSW,254,6.0,17.0,43,0.00,,,0.00,Wunderground v.1.15,2013-02-01 15:40:00,
2013-02-01 10:45:00,28.3,8.1,29.73,WSW,257,7.0,17.0,42,0.00,,,0.00,Wunderground v.1.15,2013-02-01 15:45:00,
2013-02-01 10:51:00,28.2,9.0,29.74,WSW,252,7.0,9.0,44,0.00,,,0.00,Wunderground v.1.15,2013-02-01 15:51:00,
2013-02-01 10:56:00,27.8,9.2,29.74,WSW,252,6.0,15.0,45,0.00,,,0.00,Wunderground v.1.15,2013-02-01 15:56:00,
2013-02-01 11:01:00,27.8,9.2,29.74,SW,215,5.0,15.0,45,0.00,,,0.00,Wunderground v.1.15,2013-02-01 16:01:00,
2013-02-01 11:07:00,27.8,9.2,29.74,West,269,5.0,15.0,45,0.00,,,0.00,Wunderground v.1.15,2013-02-01 16:07:00,
2013-02-01 11:12:00,27.8,9.2,29.74,NNW,327,5.0,15.0,45,0.00,,,0.00,Wunderground v.1.15,2013-02-01 16:12:00,
2013-02-01 11:18:00,27.6,9.0,29.74,SSW,209,6.0,15.0,45,0.00,,,0.00,Wunderground v.1.15,2013-02-01 16:18:00,
2013-02-01 11:23:00,27.4,8.8,29.74,SW,219,6.0,15.0,45,0.00,,,0.00,Wunderground v.1.15,2013-02-01 16:23:00,
2013-02-01 11:28:00,27.7,9.1,29.74,WSW,246,7.0,18.0,45,0.00,,,0.00,Wunderground v.1.15,2013-02-01 16:28:00,
2013-02-01 11:33:00,28.2,9.5,29.74,West,263,7.0,15.0,45,0.00,,,0.00,Wunderground v.1.15,2013-02-01 16:33:00,
2013-02-01 11:38:00,28.7,11.0,29.74,NNW,331,5.0,15.0,47,0.00,,,0.00,Wunderground v.1.15,2013-02-01 16:38:00,
2013-02-01 11:43:00,28.8,9.6,29.74,West,268,4.0,15.0,44,0.00,,,0.00,Wunderground v.1.15,2013-02-01 16:43:00,
2013-02-01 11:48:00,28.3,9.1,29.74,WSW,246,5.0,15.0,44,0.00,,,0.00,Wunderground v.1.15,2013-02-01 16:48:00,
2013-02-01 11:53:00,28.1,9.0,29.74,North,350,6.0,15.0,44,0.00,,,0.00,Wunderground v.1.15,2013-02-01 16:53:00,
2013-02-01 11:58:00,28.2,10.0,29.75,NNW,340,5.0,15.0,46,0.00,,,0.00,Wunderground v.1.15,2013-02-01 16:58:00,
2013-02-01 12:03:00,27.7,8.1,29.74,NW,307,5.0,15.0,43,0.00,,,0.00,Wunderground v.1.15,2013-02-01 17:03:00,
2013-02-01 12:08:00,27.3,8.7,29.74,NW,325,6.0,15.0,45,0.00,,,0.00,Wunderground v.1.15,2013-02-01 17:08:00,
2013-02-01 12:14:00,27.5,8.9,29.74,NNE,13,5.0,15.0,45,0.00,,,0.00,Wunderground v.1.15,2013-02-01 17:14:00,
2013-02-01 12:20:00,27.8,8.7,29.74,NW,320,5.0,15.0,44,0.00,,,0.00,Wunderground v.1.15,2013-02-01 17:20:00,
2013-02-01 12:25:00,27.8,8.2,29.75,NNW,327,6.0,15.0,43,0.00,,,0.00,Wunderground v.1.15,2013-02-01 17:25:00,
2013-02-01 12:31:00,27.6,7.5,29.75,WNW,302,6.0,15.0,42,0.00,,,0.00,Wunderground v.1.15,2013-02-01 17:31:00,
2013-02-01 12:37:00,27.9,7.7,29.75,NNW,329,6.0,15.0,42,0.00,,,0.00,Wunderground v.1.15,2013-02-01 17:37:00,
2013-02-01 12:43:00,27.9,6.7,29.75,WNW,292,6.0,15.0,40,0.00,,,0.00,Wunderground v.1.15,2013-02-01 17:43:00,
2013-02-01 12:48:00,27.7,6.5,29.75,WNW,296,7.0,15.0,40,0.00,,,0.00,Wunderground v.1.15,2013-02-01 17:48:00,
2013-02-01 12:53:00,27.7,5.4,29.75,WNW,291,7.0,15.0,38,0.00,,,0.00,Wunderground v.1.15,2013-02-01 17:53:00,
2013-02-01 12:59:00,27.8,6.0,29.75,West,275,6.0,15.0,39,0.00,,,0.00,Wunderground v.1.15,2013-02-01 17:59:00,
2013-02-01 13:04:00,27.9,6.1,29.74,SW,236,6.0,15.0,39,0.00,,,0.00,Wunderground v.1.15,2013-02-01 18:04:00,
2013-02-01 13:10:00,28.2,6.4,29.74,SW,234,5.0,5.0,39,0.00,,,0.00,Wunderground v.1.15,2013-02-01 18:10:00,
2013-02-01 13:15:00,28.4,6.6,29.74,West,276,5.0,15.0,39,0.00,,,0.00,Wunderground v.1.15,2013-02-01 18:15:00,
2013-02-01 13:20:00,28.3,5.9,29.74,NW,304,5.0,15.0,38,0.00,,,0.00,Wunderground v.1.15,2013-02-01 18:20:00,
2013-02-01 13:25:00,28.3,7.6,29.74,North,360,6.0,15.0,41,0.00,,,0.00,Wunderground v.1.15,2013-02-01 18:25:00,
2013-02-01 13:30:00,28.0,6.8,29.74,NNW,337,5.0,15.0,40,0.00,,,0.00,Wunderground v.1.15,2013-02-01 18:30:00,
2013-02-01 13:35:00,28.0,7.8,29.74,NW,319,5.0,15.0,42,0.00,,,0.00,Wunderground v.1.15,2013-02-01 18:35:00,
2013-02-01 13:41:00,28.5,7.2,29.74,West,268,4.0,15.0,40,0.00,,,0.00,Wunderground v.1.15,2013-02-01 18:41:00,
2013-02-01 13:46:00,28.5,7.2,29.74,NW,304,4.0,15.0,40,0.00,,,0.00,Wunderground v.1.15,2013-02-01 18:46:00,
2013-02-01 13:52:00,28.1,7.4,29.74,NNW,338,5.0,15.0,41,0.00,,,0.00,Wunderground v.1.15,2013-02-01 18:52:00,
2013-02-01 13:57:00,28.2,7.5,29.74,West,274,5.0,15.0,41,0.00,,,0.00,Wunderground v.1.15,2013-02-01 18:57:00,
2013-02-01 14:02:00,28.5,7.8,29.74,West,264,4.0,15.0,41,0.00,,,0.00,Wunderground v.1.15,2013-02-01 19:02:00,
2013-02-01 14:07:00,28.1,8.4,29.74,NNW,341,5.0,15.0,43,0.00,,,0.00,Wunderground v.1.15,2013-02-01 19:07:00,
2013-02-01 14:12:00,27.8,7.6,29.74,North,9,6.0,15.0,42,0.00,,,0.00,Wunderground v.1.15,2013-02-01 19:12:00,
2013-02-01 14:17:00,27.6,7.5,29.73,NNE,20,6.0,15.0,42,0.00,,,0.00,Wunderground v.1.15,2013-02-01 19:17:00,
2013-02-01 14:22:00,27.8,8.2,29.74,NW,322,6.0,15.0,43,0.00,,,0.00,Wunderground v.1.15,2013-02-01 19:22:00,
2013-02-01 14:28:00,28.0,7.8,29.73,North,11,5.0,15.0,42,0.00,,,0.00,Wunderground v.1.15,2013-02-01 19:28:00,
2013-02-01 14:33:00,28.2,8.0,29.73,WNW,293,5.0,15.0,42,0.00,,,0.00,Wunderground v.1.15,2013-02-01 19:33:00,
2013-02-01 14:38:00,27.9,6.7,29.73,North,355,6.0,15.0,40,0.00,,,0.00,Wunderground v.1.15,2013-02-01 19:38:00,
2013-02-01 14:44:00,27.5,6.3,29.73,NNW,346,6.0,15.0,40,0.00,,,0.00,Wunderground v.1.15,2013-02-01 19:44:00,
2013-02-01 14:49:00,27.5,6.3,29.74,WNW,294,6.0,15.0,40,0.00,,,0.00,Wunderground v.1.15,2013-02-01 19:49:00,
2013-02-01 14:54:00,27.6,6.9,29.74,West,264,6.0,15.0,41,0.00,,,0.00,Wunderground v.1.15,2013-02-01 19:54:00,
2013-02-01 14:59:00,27.5,6.8,29.75,NNW,336,5.0,15.0,41,0.00,,,0.00,Wunderground v.1.15,2013-02-01 19:59:00,
2013-02-01 15:04:00,27.6,6.9,29.75,West,259,5.0,15.0,41,0.00,,,0.00,Wunderground v.1.15,2013-02-01 20:04:00,
2013-02-01 15:09:00,27.7,7.0,29.75,NW,318,4.0,15.0,41,0.00,,,0.00,Wunderground v.1.15,2013-02-01 20:09:00,
2013-02-01 15:15:00,27.4,6.8,29.76,NW,319,5.0,15.0,41,0.00,,,0.00,Wunderground v.1.15,2013-02-01 20:15:00,
2013-02-01 15:20:00,27.1,6.5,29.76,NW,316,6.0,6.0,41,0.00,,,0.00,Wunderground v.1.15,2013-02-01 20:20:00,
2013-02-01 15:26:00,27.0,6.4,29.76,WNW,291,5.0,15.0,41,0.00,,,0.00,Wunderground v.1.15,2013-02-01 20:26:00,
2013-02-01 15:31:00,27.2,7.1,29.77,NW,306,4.0,6.0,42,0.00,,,0.00,Wunderground v.1.15,2013-02-01 20:31:00,
2013-02-01 15:36:00,27.3,6.7,29.77,WSW,252,4.0,15.0,41,0.00,,,0.00,Wunderground v.1.15,2013-02-01 20:36:00,
2013-02-01 15:41:00,26.8,5.7,29.77,NNE,24,5.0,15.0,40,0.00,,,0.00,Wunderground v.1.15,2013-02-01 20:41:00,
2013-02-01 15:46:00,26.6,6.0,29.77,West,261,5.0,15.0,41,0.00,,,0.00,Wunderground v.1.15,2013-02-01 20:46:00,
2013-02-01 15:52:00,26.4,6.4,29.77,NNW,333,5.0,15.0,42,0.00,,,0.00,Wunderground v.1.15,2013-02-01 20:52:00,
2013-02-01 15:57:00,26.0,7.0,29.78,North,5,5.0,15.0,44,0.00,,,0.00,Wunderground v.1.15,2013-02-01 20:57:00,
2013-02-01 16:02:00,25.7,6.8,29.78,NNW,340,6.0,15.0,44,0.00,,,0.00,Wunderground v.1.15,2013-02-01 21:02:00,
2013-02-01 16:07:00,25.4,7.0,29.78,North,355,5.0,15.0,45,0.00,,,0.00,Wunderground v.1.15,2013-02-01 21:07:00,
2013-02-01 16:12:00,25.1,7.2,29.79,NW,313,5.0,15.0,46,0.00,,,0.00,Wunderground v.1.15,2013-02-01 21:12:00,
2013-02-01 16:18:00,25.1,6.7,29.80,West,273,5.0,15.0,45,0.00,,,0.00,Wunderground v.1.15,2013-02-01 21:18:00,
2013-02-01 16:23:00,24.8,6.4,29.80,NNW,328,6.0,15.0,45,0.00,,,0.00,Wunderground v.1.15,2013-02-01 21:23:00,
2013-02-01 16:28:00,24.4,6.1,29.80,NNW,334,5.0,15.0,45,0.00,,,0.00,Wunderground v.1.15,2013-02-01 21:28:00,
2013-02-01 16:33:00,24.2,6.4,29.81,North,355,5.0,15.0,46,0.00,,,0.00,Wunderground v.1.15,2013-02-01 21:33:00,
2013-02-01 16:38:00,24.0,6.2,29.81,NW,319,4.0,15.0,46,0.00,,,0.00,Wunderground v.1.15,2013-02-01 21:38:00,
2013-02-01 16:44:00,23.9,5.6,29.81,NNW,327,4.0,15.0,45,0.00,,,0.00,Wunderground v.1.15,2013-02-01 21:44:00,
2013-02-01 16:49:00,23.7,5.9,29.82,NW,311,5.0,15.0,46,0.00,,,0.00,Wunderground v.1.15,2013-02-01 21:49:00,
2013-02-01 16:54:00,23.6,6.3,29.82,WNW,302,4.0,15.0,47,0.00,,,0.00,Wunderground v.1.15,2013-02-01 21:54:00,
2013-02-01 16:59:00,23.4,5.6,29.82,NW,316,4.0,15.0,46,0.00,,,0.00,Wunderground v.1.15,2013-02-01 21:59:00,
2013-02-01 17:04:00,23.3,6.0,29.83,WNW,292,3.0,15.0,47,0.00,,,0.00,Wunderground v.1.15,2013-02-01 22:04:00,
2013-02-01 17:10:00,23.1,5.8,29.83,North,5,3.0,15.0,47,0.00,,,0.00,Wunderground v.1.15,2013-02-01 22:10:00,
2013-02-01 17:15:00,23.0,6.2,29.83,NNW,348,3.0,15.0,48,0.00,,,0.00,Wunderground v.1.15,2013-02-01 22:15:00,
2013-02-01 17:20:00,22.9,6.1,29.84,NW,325,3.0,15.0,48,0.00,,,0.00,Wunderground v.1.15,2013-02-01 22:20:00,
2013-02-01 17:25:00,22.8,6.5,29.84,WNW,292,3.0,15.0,49,0.00,,,0.00,Wunderground v.1.15,2013-02-01 22:25:00,
2013-02-01 17:30:00,22.7,6.4,29.85,WNW,302,3.0,3.0,49,0.00,,,0.00,Wunderground v.1.15,2013-02-01 22:30:00,
2013-02-01 17:35:00,22.6,6.7,29.85,NW,311,3.0,15.0,50,0.00,,,0.00,Wunderground v.1.15,2013-02-01 22:35:00,
2013-02-01 17:40:00,22.4,6.5,29.85,WNW,288,2.0,15.0,50,0.00,,,0.00,Wunderground v.1.15,2013-02-01 22:40:00,
2013-02-01 17:46:00,22.3,6.4,29.86,West,281,1.0,15.0,50,0.00,,,0.00,Wunderground v.1.15,2013-02-01 22:46:00,
2013-02-01 17:51:00,22.3,6.9,29.86,NNW,335,2.0,15.0,51,0.00,,,0.00,Wunderground v.1.15,2013-02-01 22:51:00,
2013-02-01 17:57:00,22.1,6.7,29.87,WNW,293,2.0,15.0,51,0.00,,,0.00,Wunderground v.1.15,2013-02-01 22:57:00,
2013-02-01 18:02:00,22.0,6.6,29.88,NNW,336,2.0,15.0,51,0.00,,,0.00,Wunderground v.1.15,2013-02-01 23:02:00,
2013-02-01 18:07:00,22.0,6.6,29.88,NW,314,3.0,15.0,51,0.00,,,0.00,Wunderground v.1.15,2013-02-01 23:07:00,
2013-02-01 18:12:00,22.0,6.6,29.88,WNW,300,3.0,15.0,51,0.00,,,0.00,Wunderground v.1.15,2013-02-01 23:12:00,
2013-02-01 18:18:00,21.9,6.5,29.89,NNW,348,4.0,15.0,51,0.00,,,0.00,Wunderground v.1.15,2013-02-01 23:18:00,
2013-02-01 18:23:00,21.8,6.8,29.89,NNW,348,2.0,15.0,52,0.00,,,0.00,Wunderground v.1.15,2013-02-01 23:23:00,
2013-02-01 18:28:00,21.7,6.8,29.90,West,279,2.0,15.0,52,0.00,,,0.00,Wunderground v.1.15,2013-02-01 23:28:00,
2013-02-01 18:33:00,21.7,6.8,29.90,NW,324,3.0,15.0,52,0.00,,,0.00,Wunderground v.1.15,2013-02-01 23:33:00,
2013-02-01 18:39:00,21.7,6.8,29.90,NNW,348,3.0,15.0,52,0.00,,,0.00,Wunderground v.1.15,2013-02-01 23:39:00,
2013-02-01 18:44:00,21.7,6.8,29.91,WNW,298,2.0,15.0,52,0.00,,,0.00,Wunderground v.1.15,2013-02-01 23:44:00,
2013-02-01 18:49:00,21.6,7.1,29.91,NNW,328,2.0,15.0,53,0.00,,,0.00,Wunderground v.1.15,2013-02-01 23:49:00,
2013-02-01 18:54:00,21.6,6.7,29.92,NNW,345,3.0,15.0,52,0.00,,,0.00,Wunderground v.1.15,2013-02-01 23:54:00,
2013-02-01 18:59:00,21.5,7.4,29.92,North,5,3.0,15.0,54,0.00,,,0.00,Wunderground v.1.15,2013-02-01 23:59:00,
2013-02-01 19:04:00,21.3,7.2,29.92,North,349,2.0,15.0,54,0.00,,,0.00,Wunderground v.1.15,2013-02-02 00:04:00,
2013-02-01 19:09:00,21.2,6.7,29.93,NW,313,3.0,15.0,53,0.00,,,0.00,Wunderground v.1.15,2013-02-02 00:09:00,
2013-02-01 19:14:00,21.0,6.1,29.93,WNW,291,4.0,15.0,52,0.00,,,0.00,Wunderground v.1.15,2013-02-02 00:14:00,
2013-02-01 19:19:00,20.9,6.4,29.93,North,5,3.0,15.0,53,0.00,,,0.00,Wunderground v.1.15,2013-02-02 00:19:00,
2013-02-01 19:25:00,20.7,6.2,29.94,WNW,298,3.0,15.0,53,0.00,,,0.00,Wunderground v.1.15,2013-02-02 00:25:00,
2013-02-01 19:30:00,20.6,6.6,29.94,WNW,284,3.0,15.0,54,0.00,,,0.00,Wunderground v.1.15,2013-02-02 00:30:00,
2013-02-01 19:35:00,20.4,6.0,29.94,NNW,337,4.0,15.0,53,0.00,,,0.00,Wunderground v.1.15,2013-02-02 00:35:00,
2013-02-01 19:40:00,20.2,6.2,29.95,NNW,348,3.0,3.0,54,0.00,,,0.00,Wunderground v.1.15,2013-02-02 00:40:00,
2013-02-01 19:45:00,20.1,5.7,29.95,NNW,334,3.0,15.0,53,0.00,,,0.00,Wunderground v.1.15,2013-02-02 00:45:00,
2013-02-01 19:50:00,19.9,5.1,29.95,NW,312,4.0,4.0,52,0.00,,,0.00,Wunderground v.1.15,2013-02-02 00:50:00,
2013-02-01 19:56:00,19.8,5.0,29.96,West,275,5.0,15.0,52,0.00,,,0.00,Wunderground v.1.15,2013-02-02 00:56:00,
2013-02-01 20:01:00,19.7,4.9,29.96,NNW,327,5.0,15.0,52,0.00,,,0.00,Wunderground v.1.15,2013-02-02 01:01:00,
2013-02-01 20:06:00,19.5,5.1,29.96,NNW,338,4.0,15.0,53,0.00,,,0.00,Wunderground v.1.15,2013-02-02 01:06:00,
2013-02-01 20:11:00,19.3,4.9,29.97,NW,320,3.0,15.0,53,0.00,,,0.00,Wunderground v.1.15,2013-02-02 01:11:00,
2013-02-01 20:16:00,19.2,5.3,29.97,WNW,282,3.0,15.0,54,0.00,,,0.00,Wunderground v.1.15,2013-02-02 01:16:00,
2013-02-01 20:22:00,19.2,4.8,29.97,WNW,293,3.0,15.0,53,0.00,,,0.00,Wunderground v.1.15,2013-02-02 01:22:00,
2013-02-01 20:27:00,19.1,5.2,29.97,NNW,338,3.0,15.0,54,0.00,,,0.00,Wunderground v.1.15,2013-02-02 01:27:00,
2013-02-01 20:32:00,19.1,4.8,29.97,NW,311,3.0,9.0,53,0.00,,,0.00,Wunderground v.1.15,2013-02-02 01:32:00,
2013-02-01 20:37:00,19.1,5.2,29.98,NW,316,4.0,15.0,54,0.00,,,0.00,Wunderground v.1.15,2013-02-02 01:37:00,
2013-02-01 20:43:00,19.0,4.7,29.98,NNE,19,4.0,15.0,53,0.00,,,0.00,Wunderground v.1.15,2013-02-02 01:43:00,
2013-02-01 20:48:00,18.9,4.6,29.98,NW,313,3.0,15.0,53,0.00,,,0.00,Wunderground v.1.15,2013-02-02 01:48:00,
2013-02-01 20:53:00,18.9,4.6,29.98,NW,310,4.0,15.0,53,0.00,,,0.00,Wunderground v.1.15,2013-02-02 01:53:00,
2013-02-01 20:58:00,18.9,4.1,29.99,WNW,286,4.0,15.0,52,0.00,,,0.00,Wunderground v.1.15,2013-02-02 01:58:00,
2013-02-01 21:04:00,18.8,4.1,29.99,NW,325,4.0,15.0,52,0.00,,,0.00,Wunderground v.1.15,2013-02-02 02:04:00,
2013-02-01 21:10:00,18.6,4.3,29.99,WSW,251,3.0,3.0,53,0.00,,,0.00,Wunderground v.1.15,2013-02-02 02:10:00,
2013-02-01 21:15:00,18.5,4.2,29.99,WNW,283,2.0,15.0,53,0.00,,,0.00,Wunderground v.1.15,2013-02-02 02:15:00,
2013-02-01 21:20:00,18.4,4.1,29.99,North,349,3.0,15.0,53,0.00,,,0.00,Wunderground v.1.15,2013-02-02 02:20:00,
2013-02-01 21:25:00,18.2,3.9,29.99,NW,321,3.0,15.0,53,0.00,,,0.00,Wunderground v.1.15,2013-02-02 02:25:00,
2013-02-01 21:30:00,18.2,3.9,30.00,NW,304,4.0,15.0,53,0.00,,,0.00,Wunderground v.1.15,2013-02-02 02:30:00,
2013-02-01 21:36:00,18.1,3.8,30.00,NW,304,4.0,15.0,53,0.00,,,0.00,Wunderground v.1.15,2013-02-02 02:36:00,
2013-02-01 21:42:00,18.0,4.1,30.00,NNW,348,4.0,15.0,54,0.00,,,0.00,Wunderground v.1.15,2013-02-02 02:42:00,
2013-02-01 21:47:00,17.9,4.0,30.00,NW,306,4.0,15.0,54,0.00,,,0.00,Wunderground v.1.15,2013-02-02 02:47:00,
2013-02-01 21:52:00,17.9,4.0,30.00,NW,317,3.0,15.0,54,0.00,,,0.00,Wunderground v.1.15,2013-02-02 02:52:00,
2013-02-01 21:58:00,17.8,3.9,30.01,NNW,328,3.0,15.0,54,0.00,,,0.00,Wunderground v.1.15,2013-02-02 02:58:00,
2013-02-01 22:03:00,17.8,3.9,30.01,NNW,342,4.0,15.0,54,0.00,,,0.00,Wunderground v.1.15,2013-02-02 03:03:00,
2013-02-01 22:08:00,17.6,3.8,30.01,WNW,290,3.0,15.0,54,0.00,,,0.00,Wunderground v.1.15,2013-02-02 03:08:00,
2013-02-01 22:13:00,17.6,3.8,30.01,NW,306,3.0,15.0,54,0.00,,,0.00,Wunderground v.1.15,2013-02-02 03:13:00,
2013-02-01 22:19:00,17.5,3.7,30.01,NW,320,3.0,15.0,54,0.00,,,0.00,Wunderground v.1.15,2013-02-02 03:19:00,
2013-02-01 22:24:00,17.5,3.7,30.01,NW,304,5.0,15.0,54,0.00,,,0.00,Wunderground v.1.15,2013-02-02 03:24:00,
2013-02-01 22:29:00,17.4,3.6,30.01,NNW,345,5.0,15.0,54,0.00,,,0.00,Wunderground v.1.15,2013-02-02 03:29:00,
2013-02-01 22:34:00,17.3,3.5,30.02,WNW,298,5.0,15.0,54,0.00,,,0.00,Wunderground v.1.15,2013-02-02 03:34:00,
2013-02-01 22:40:00,17.2,3.4,30.02,SW,223,4.0,4.0,54,0.00,,,0.00,Wunderground v.1.15,2013-02-02 03:40:00,
2013-02-01 22:45:00,17.1,3.7,30.02,NW,309,3.0,15.0,55,0.00,,,0.00,Wunderground v.1.15,2013-02-02 03:45:00,
2013-02-01 22:50:00,17.0,3.6,30.02,WSW,250,3.0,3.0,55,0.00,,,0.00,Wunderground v.1.15,2013-02-02 03:50:00,
2013-02-01 22:56:00,16.9,3.5,30.02,North,9,3.0,15.0,55,0.00,,,0.00,Wunderground v.1.15,2013-02-02 03:56:00,
2013-02-01 23:02:00,16.8,3.4,30.02,NNW,331,3.0,15.0,55,0.00,,,0.00,Wunderground v.1.15,2013-02-02 04:02:00,
2013-02-01 23:07:00,16.8,3.4,30.03,NW,315,5.0,15.0,55,0.00,,,0.00,Wunderground v.1.15,2013-02-02 04:07:00,
2013-02-01 23:12:00,16.7,3.3,30.03,WNW,302,4.0,15.0,55,0.00,,,0.00,Wunderground v.1.15,2013-02-02 04:12:00,